sensor_id;sensor_type;location;lat;lon;timestamp;temperature;humidity
21033;DHT22;10675;47.976;7.824;2023-02-05T00:02:01;2.70;99.90
21033;DHT22;10675;47.976;7.824;2023-02-05T00:04:26;2.60;99.90
21033;DHT22;10675;47.976;7.824;2023-02-05T00:06:52;2.40;99.90
21033;DHT22;10675;47.976;7.824;2023-02-05T00:09:18;2.50;99.90
21033;DHT22;10675;47.976;7.824;2023-02-05T00:11:43;2.40;99.90
21033;DHT22;10675;47.976;7.824;2023-02-05T00:14:09;2.50;99.90
21033;DHT22;10675;47.976;7.824;2023-02-05T00:16:35;2.50;99.90
21033;DHT22;10675;47.976;7.824;2023-02-05T00:19:01;2.30;99.90
21033;DHT22;10675;47.976;7.824;2023-02-05T00:21:26;2.30;99.90
21033;DHT22;10675;47.976;7.824;2023-02-05T00:23:52;2.20;99.90
21033;DHT22;10675;47.976;7.824;2023-02-05T00:26:18;2.30;99.90
21033;DHT22;10675;47.976;7.824;2023-02-05T00:28:44;2.30;99.90
21033;DHT22;10675;47.976;7.824;2023-02-05T00:31:12;2.30;99.90
21033;DHT22;10675;47.976;7.824;2023-02-05T00:33:38;2.20;99.90
21033;DHT22;10675;47.976;7.824;2023-02-05T00:36:04;2.20;99.90
21033;DHT22;10675;47.976;7.824;2023-02-05T00:38:29;2.20;99.90
21033;DHT22;10675;47.976;7.824;2023-02-05T00:40:55;2.10;99.90
21033;DHT22;10675;47.976;7.824;2023-02-05T00:43:20;2.10;99.90
21033;DHT22;10675;47.976;7.824;2023-02-05T00:45:46;2.10;99.90
21033;DHT22;10675;47.976;7.824;2023-02-05T00:48:12;2.10;99.90
21033;DHT22;10675;47.976;7.824;2023-02-05T00:50:37;2.00;99.90
21033;DHT22;10675;47.976;7.824;2023-02-05T00:53:03;2.00;99.90
21033;DHT22;10675;47.976;7.824;2023-02-05T00:55:29;2.10;99.90
21033;DHT22;10675;47.976;7.824;2023-02-05T00:57:55;2.10;99.90
21033;DHT22;10675;47.976;7.824;2023-02-05T01:00:21;2.00;99.90
21033;DHT22;10675;47.976;7.824;2023-02-05T01:02:47;2.10;99.90
21033;DHT22;10675;47.976;7.824;2023-02-05T01:05:12;2.00;99.90
21033;DHT22;10675;47.976;7.824;2023-02-05T01:07:38;2.00;99.90
21033;DHT22;10675;47.976;7.824;2023-02-05T01:10:04;1.90;99.90
21033;DHT22;10675;47.976;7.824;2023-02-05T01:12:30;2.00;99.90
21033;DHT22;10675;47.976;7.824;2023-02-05T01:14:58;1.90;99.90
21033;DHT22;10675;47.976;7.824;2023-02-05T01:17:24;2.00;99.90
21033;DHT22;10675;47.976;7.824;2023-02-05T01:19:49;2.00;99.90
21033;DHT22;10675;47.976;7.824;2023-02-05T01:22:15;1.90;99.90
21033;DHT22;10675;47.976;7.824;2023-02-05T01:24:40;2.00;99.90
21033;DHT22;10675;47.976;7.824;2023-02-05T01:27:06;2.10;99.90
21033;DHT22;10675;47.976;7.824;2023-02-05T01:29:31;2.00;99.90
21033;DHT22;10675;47.976;7.824;2023-02-05T01:31:57;1.90;99.90
21033;DHT22;10675;47.976;7.824;2023-02-05T01:34:22;1.90;99.90
21033;DHT22;10675;47.976;7.824;2023-02-05T01:36:48;1.80;99.90
21033;DHT22;10675;47.976;7.824;2023-02-05T01:39:14;1.80;99.90
21033;DHT22;10675;47.976;7.824;2023-02-05T01:41:41;1.80;99.90
21033;DHT22;10675;47.976;7.824;2023-02-05T01:44:15;1.90;99.90
21033;DHT22;10675;47.976;7.824;2023-02-05T01:46:45;1.90;99.90
21033;DHT22;10675;47.976;7.824;2023-02-05T01:49:17;1.90;99.90
21033;DHT22;10675;47.976;7.824;2023-02-05T01:51:44;1.80;99.90
21033;DHT22;10675;47.976;7.824;2023-02-05T01:54:11;1.70;99.90
21033;DHT22;10675;47.976;7.824;2023-02-05T01:56:44;1.60;99.90
21033;DHT22;10675;47.976;7.824;2023-02-05T01:59:18;1.60;99.90
21033;DHT22;10675;47.976;7.824;2023-02-05T02:01:44;1.60;99.90
21033;DHT22;10675;47.976;7.824;2023-02-05T02:04:11;1.60;99.90
21033;DHT22;10675;47.976;7.824;2023-02-05T02:06:39;1.70;99.90
21033;DHT22;10675;47.976;7.824;2023-02-05T02:09:06;1.80;99.90
21033;DHT22;10675;47.976;7.824;2023-02-05T02:11:35;1.60;99.90
21033;DHT22;10675;47.976;7.824;2023-02-05T02:14:04;1.70;99.90
21033;DHT22;10675;47.976;7.824;2023-02-05T02:16:33;1.70;99.90
21033;DHT22;10675;47.976;7.824;2023-02-05T02:19:00;1.70;99.90
21033;DHT22;10675;47.976;7.824;2023-02-05T02:30:10;1.40;99.90
21033;DHT22;10675;47.976;7.824;2023-02-05T02:32:38;1.30;99.90
21033;DHT22;10675;47.976;7.824;2023-02-05T02:35:09;1.30;99.90
21033;DHT22;10675;47.976;7.824;2023-02-05T02:38:15;1.30;99.90
21033;DHT22;10675;47.976;7.824;2023-02-05T02:40:54;1.30;99.90
21033;DHT22;10675;47.976;7.824;2023-02-05T02:43:29;1.40;99.90
21033;DHT22;10675;47.976;7.824;2023-02-05T02:46:04;1.40;99.90
21033;DHT22;10675;47.976;7.824;2023-02-05T02:48:32;1.30;99.90
21033;DHT22;10675;47.976;7.824;2023-02-05T02:51:00;1.20;99.90
21033;DHT22;10675;47.976;7.824;2023-02-05T02:53:32;1.30;99.90
21033;DHT22;10675;47.976;7.824;2023-02-05T02:55:59;1.30;99.90
21033;DHT22;10675;47.976;7.824;2023-02-05T02:58:32;1.30;99.90
21033;DHT22;10675;47.976;7.824;2023-02-05T03:01:00;1.30;99.90
21033;DHT22;10675;47.976;7.824;2023-02-05T03:03:29;1.40;99.90
21033;DHT22;10675;47.976;7.824;2023-02-05T03:05:57;1.40;99.90
21033;DHT22;10675;47.976;7.824;2023-02-05T03:08:29;1.50;99.90
21033;DHT22;10675;47.976;7.824;2023-02-05T03:11:02;1.40;99.90
21033;DHT22;10675;47.976;7.824;2023-02-05T03:13:29;1.40;99.90
21033;DHT22;10675;47.976;7.824;2023-02-05T03:15:55;1.30;99.90
21033;DHT22;10675;47.976;7.824;2023-02-05T03:18:20;1.30;99.90
21033;DHT22;10675;47.976;7.824;2023-02-05T03:20:49;1.50;99.90
21033;DHT22;10675;47.976;7.824;2023-02-05T03:23:15;1.30;99.90
21033;DHT22;10675;47.976;7.824;2023-02-05T03:25:41;1.40;99.90
21033;DHT22;10675;47.976;7.824;2023-02-05T03:28:06;1.30;99.90
21033;DHT22;10675;47.976;7.824;2023-02-05T03:30:40;1.30;99.90
21033;DHT22;10675;47.976;7.824;2023-02-05T03:34:10;1.30;99.90
21033;DHT22;10675;47.976;7.824;2023-02-05T03:36:23;1.40;99.90
21033;DHT22;10675;47.976;7.824;2023-02-05T03:47:23;1.40;99.90
21033;DHT22;10675;47.976;7.824;2023-02-05T03:52:50;1.40;99.90
21033;DHT22;10675;47.976;7.824;2023-02-05T03:55:29;1.40;99.90
21033;DHT22;10675;47.976;7.824;2023-02-05T03:58:18;1.40;99.90
21033;DHT22;10675;47.976;7.824;2023-02-05T04:00:45;1.50;99.90
21033;DHT22;10675;47.976;7.824;2023-02-05T04:03:12;1.40;99.90
21033;DHT22;10675;47.976;7.824;2023-02-05T04:05:37;1.40;99.90
21033;DHT22;10675;47.976;7.824;2023-02-05T04:08:03;1.30;99.90
21033;DHT22;10675;47.976;7.824;2023-02-05T04:10:30;1.40;99.90
21033;DHT22;10675;47.976;7.824;2023-02-05T04:12:55;1.20;99.90
21033;DHT22;10675;47.976;7.824;2023-02-05T04:15:21;1.30;99.90
21033;DHT22;10675;47.976;7.824;2023-02-05T04:17:46;1.20;99.90
21033;DHT22;10675;47.976;7.824;2023-02-05T04:20:12;1.30;99.90
21033;DHT22;10675;47.976;7.824;2023-02-05T04:22:38;1.20;99.90
21033;DHT22;10675;47.976;7.824;2023-02-05T04:25:04;1.20;99.90
21033;DHT22;10675;47.976;7.824;2023-02-05T04:27:29;1.20;99.90
21033;DHT22;10675;47.976;7.824;2023-02-05T04:29:55;1.20;99.90
21033;DHT22;10675;47.976;7.824;2023-02-05T04:32:20;1.30;99.90
21033;DHT22;10675;47.976;7.824;2023-02-05T04:34:46;1.40;99.90
21033;DHT22;10675;47.976;7.824;2023-02-05T04:37:11;1.30;99.90
21033;DHT22;10675;47.976;7.824;2023-02-05T04:39:37;1.20;99.90
21033;DHT22;10675;47.976;7.824;2023-02-05T04:42:02;1.20;99.90
21033;DHT22;10675;47.976;7.824;2023-02-05T04:44:28;1.40;99.90
21033;DHT22;10675;47.976;7.824;2023-02-05T04:46:54;1.40;99.90
21033;DHT22;10675;47.976;7.824;2023-02-05T04:49:19;1.50;99.90
21033;DHT22;10675;47.976;7.824;2023-02-05T04:51:45;1.40;99.90
21033;DHT22;10675;47.976;7.824;2023-02-05T04:54:10;1.30;99.90
21033;DHT22;10675;47.976;7.824;2023-02-05T04:56:37;1.50;99.90
21033;DHT22;10675;47.976;7.824;2023-02-05T04:59:03;1.50;99.90
21033;DHT22;10675;47.976;7.824;2023-02-05T05:01:29;1.50;99.90
21033;DHT22;10675;47.976;7.824;2023-02-05T05:03:54;1.50;99.90
21033;DHT22;10675;47.976;7.824;2023-02-05T05:06:20;1.70;99.90
21033;DHT22;10675;47.976;7.824;2023-02-05T05:08:45;1.80;99.90
21033;DHT22;10675;47.976;7.824;2023-02-05T05:11:14;1.70;99.90
21033;DHT22;10675;47.976;7.824;2023-02-05T05:13:40;1.70;99.90
21033;DHT22;10675;47.976;7.824;2023-02-05T05:16:07;1.60;99.90
21033;DHT22;10675;47.976;7.824;2023-02-05T05:18:33;1.60;99.90
21033;DHT22;10675;47.976;7.824;2023-02-05T05:21:00;1.60;99.90
21033;DHT22;10675;47.976;7.824;2023-02-05T05:23:25;1.60;99.90
21033;DHT22;10675;47.976;7.824;2023-02-05T05:25:51;1.70;99.90
21033;DHT22;10675;47.976;7.824;2023-02-05T05:28:17;1.70;99.90
21033;DHT22;10675;47.976;7.824;2023-02-05T05:30:44;1.90;99.90
21033;DHT22;10675;47.976;7.824;2023-02-05T05:33:10;1.90;99.90
21033;DHT22;10675;47.976;7.824;2023-02-05T05:35:36;1.90;99.90
21033;DHT22;10675;47.976;7.824;2023-02-05T05:38:03;1.90;99.90
21033;DHT22;10675;47.976;7.824;2023-02-05T05:40:29;1.90;99.90
21033;DHT22;10675;47.976;7.824;2023-02-05T05:43:15;1.90;99.90
21033;DHT22;10675;47.976;7.824;2023-02-05T05:45:59;1.90;99.90
21033;DHT22;10675;47.976;7.824;2023-02-05T05:48:25;1.80;99.90
21033;DHT22;10675;47.976;7.824;2023-02-05T05:50:50;1.80;99.90
21033;DHT22;10675;47.976;7.824;2023-02-05T05:53:16;1.80;99.90
21033;DHT22;10675;47.976;7.824;2023-02-05T05:55:42;1.70;99.90
21033;DHT22;10675;47.976;7.824;2023-02-05T05:58:08;1.80;99.90
21033;DHT22;10675;47.976;7.824;2023-02-05T06:00:34;1.90;99.90
21033;DHT22;10675;47.976;7.824;2023-02-05T06:03:00;2.00;99.90
21033;DHT22;10675;47.976;7.824;2023-02-05T06:05:25;2.00;99.90
21033;DHT22;10675;47.976;7.824;2023-02-05T06:07:51;2.00;99.90
21033;DHT22;10675;47.976;7.824;2023-02-05T06:10:17;2.10;99.90
21033;DHT22;10675;47.976;7.824;2023-02-05T06:12:42;2.10;99.90
21033;DHT22;10675;47.976;7.824;2023-02-05T06:15:08;2.10;99.90
21033;DHT22;10675;47.976;7.824;2023-02-05T06:17:34;2.00;99.90
21033;DHT22;10675;47.976;7.824;2023-02-05T06:20:00;2.00;99.90
21033;DHT22;10675;47.976;7.824;2023-02-05T06:22:25;2.00;99.90
21033;DHT22;10675;47.976;7.824;2023-02-05T06:24:51;2.10;99.90
21033;DHT22;10675;47.976;7.824;2023-02-05T06:27:16;2.10;99.90
21033;DHT22;10675;47.976;7.824;2023-02-05T06:29:42;2.10;99.90
21033;DHT22;10675;47.976;7.824;2023-02-05T06:32:07;2.20;99.90
21033;DHT22;10675;47.976;7.824;2023-02-05T06:34:33;2.10;99.90
21033;DHT22;10675;47.976;7.824;2023-02-05T06:36:58;2.20;99.90
21033;DHT22;10675;47.976;7.824;2023-02-05T06:39:24;2.30;99.90
21033;DHT22;10675;47.976;7.824;2023-02-05T06:41:49;2.30;99.90
21033;DHT22;10675;47.976;7.824;2023-02-05T06:44:15;2.30;99.90
21033;DHT22;10675;47.976;7.824;2023-02-05T06:46:40;2.40;99.90
21033;DHT22;10675;47.976;7.824;2023-02-05T06:49:06;2.40;99.90
21033;DHT22;10675;47.976;7.824;2023-02-05T06:51:32;2.40;99.90
21033;DHT22;10675;47.976;7.824;2023-02-05T06:53:59;2.50;99.90
21033;DHT22;10675;47.976;7.824;2023-02-05T06:56:24;2.60;99.90
21033;DHT22;10675;47.976;7.824;2023-02-05T06:58:50;2.80;99.90
21033;DHT22;10675;47.976;7.824;2023-02-05T07:01:16;3.00;99.90
21033;DHT22;10675;47.976;7.824;2023-02-05T07:03:41;2.90;99.90
21033;DHT22;10675;47.976;7.824;2023-02-05T07:06:07;3.00;99.90
21033;DHT22;10675;47.976;7.824;2023-02-05T07:08:33;2.90;99.90
21033;DHT22;10675;47.976;7.824;2023-02-05T07:10:59;2.70;99.90
21033;DHT22;10675;47.976;7.824;2023-02-05T07:13:25;2.70;99.90
21033;DHT22;10675;47.976;7.824;2023-02-05T07:15:51;2.70;99.90
21033;DHT22;10675;47.976;7.824;2023-02-05T07:18:16;2.80;99.90
21033;DHT22;10675;47.976;7.824;2023-02-05T07:20:42;3.00;99.90
21033;DHT22;10675;47.976;7.824;2023-02-05T07:23:07;3.00;99.90
21033;DHT22;10675;47.976;7.824;2023-02-05T07:25:33;3.10;99.90
21033;DHT22;10675;47.976;7.824;2023-02-05T07:28:04;3.10;99.90
21033;DHT22;10675;47.976;7.824;2023-02-05T07:30:30;3.20;99.90
21033;DHT22;10675;47.976;7.824;2023-02-05T07:32:56;3.20;99.90
21033;DHT22;10675;47.976;7.824;2023-02-05T07:35:21;3.20;99.90
21033;DHT22;10675;47.976;7.824;2023-02-05T07:37:47;3.20;99.90
21033;DHT22;10675;47.976;7.824;2023-02-05T07:40:13;3.20;99.90
21033;DHT22;10675;47.976;7.824;2023-02-05T07:42:38;3.30;99.90
21033;DHT22;10675;47.976;7.824;2023-02-05T07:45:04;3.30;99.90
21033;DHT22;10675;47.976;7.824;2023-02-05T07:47:29;3.40;99.90
21033;DHT22;10675;47.976;7.824;2023-02-05T07:49:55;3.40;99.90
21033;DHT22;10675;47.976;7.824;2023-02-05T07:52:20;3.40;99.90
21033;DHT22;10675;47.976;7.824;2023-02-05T07:54:46;3.40;99.90
21033;DHT22;10675;47.976;7.824;2023-02-05T07:57:11;3.40;99.90
21033;DHT22;10675;47.976;7.824;2023-02-05T07:59:37;3.40;99.90
21033;DHT22;10675;47.976;7.824;2023-02-05T08:02:02;3.30;99.90
21033;DHT22;10675;47.976;7.824;2023-02-05T08:04:28;3.30;99.90
21033;DHT22;10675;47.976;7.824;2023-02-05T08:06:53;3.40;99.90
21033;DHT22;10675;47.976;7.824;2023-02-05T08:09:19;3.30;99.90
21033;DHT22;10675;47.976;7.824;2023-02-05T08:11:45;3.30;99.90
21033;DHT22;10675;47.976;7.824;2023-02-05T08:14:10;3.20;99.90
21033;DHT22;10675;47.976;7.824;2023-02-05T08:16:36;3.20;99.90
21033;DHT22;10675;47.976;7.824;2023-02-05T08:19:01;2.80;99.90
21033;DHT22;10675;47.976;7.824;2023-02-05T08:21:27;2.60;99.90
21033;DHT22;10675;47.976;7.824;2023-02-05T08:23:52;2.70;99.90
21033;DHT22;10675;47.976;7.824;2023-02-05T08:26:18;2.70;99.90
21033;DHT22;10675;47.976;7.824;2023-02-05T08:28:43;2.80;99.90
21033;DHT22;10675;47.976;7.824;2023-02-05T08:31:16;2.70;99.90
21033;DHT22;10675;47.976;7.824;2023-02-05T08:33:42;2.80;99.90
21033;DHT22;10675;47.976;7.824;2023-02-05T08:36:08;2.80;99.90
21033;DHT22;10675;47.976;7.824;2023-02-05T08:38:34;2.90;99.90
21033;DHT22;10675;47.976;7.824;2023-02-05T08:41:03;2.90;99.90
21033;DHT22;10675;47.976;7.824;2023-02-05T08:43:29;3.10;99.90
21033;DHT22;10675;47.976;7.824;2023-02-05T08:45:54;3.10;99.90
21033;DHT22;10675;47.976;7.824;2023-02-05T08:48:20;3.20;99.90
21033;DHT22;10675;47.976;7.824;2023-02-05T08:50:45;3.30;99.90
21033;DHT22;10675;47.976;7.824;2023-02-05T08:53:11;3.30;99.90
21033;DHT22;10675;47.976;7.824;2023-02-05T08:55:37;3.30;99.90
21033;DHT22;10675;47.976;7.824;2023-02-05T08:58:03;3.40;99.90
21033;DHT22;10675;47.976;7.824;2023-02-05T09:00:29;3.50;99.90
21033;DHT22;10675;47.976;7.824;2023-02-05T09:02:54;3.60;99.90
21033;DHT22;10675;47.976;7.824;2023-02-05T09:05:20;3.60;99.90
21033;DHT22;10675;47.976;7.824;2023-02-05T09:07:45;3.60;99.90
21033;DHT22;10675;47.976;7.824;2023-02-05T09:10:12;3.70;99.90
21033;DHT22;10675;47.976;7.824;2023-02-05T09:12:38;3.80;99.90
21033;DHT22;10675;47.976;7.824;2023-02-05T09:15:04;3.90;99.90
21033;DHT22;10675;47.976;7.824;2023-02-05T09:17:30;4.00;99.90
21033;DHT22;10675;47.976;7.824;2023-02-05T09:19:55;3.90;99.90
21033;DHT22;10675;47.976;7.824;2023-02-05T09:22:21;4.00;99.90
21033;DHT22;10675;47.976;7.824;2023-02-05T09:24:47;4.10;99.90
21033;DHT22;10675;47.976;7.824;2023-02-05T09:27:12;4.10;99.90
21033;DHT22;10675;47.976;7.824;2023-02-05T09:29:39;4.10;99.90
21033;DHT22;10675;47.976;7.824;2023-02-05T09:32:05;4.20;99.90
21033;DHT22;10675;47.976;7.824;2023-02-05T09:34:31;4.20;99.90
21033;DHT22;10675;47.976;7.824;2023-02-05T09:36:57;4.50;99.90
21033;DHT22;10675;47.976;7.824;2023-02-05T09:39:23;4.40;99.90
21033;DHT22;10675;47.976;7.824;2023-02-05T09:42:00;4.40;99.90
21033;DHT22;10675;47.976;7.824;2023-02-05T09:44:48;4.40;99.90
21033;DHT22;10675;47.976;7.824;2023-02-05T09:47:30;4.30;99.90
21033;DHT22;10675;47.976;7.824;2023-02-05T09:50:19;4.30;99.90
21033;DHT22;10675;47.976;7.824;2023-02-05T09:52:51;4.60;99.90
21033;DHT22;10675;47.976;7.824;2023-02-05T09:55:22;4.50;99.90
21033;DHT22;10675;47.976;7.824;2023-02-05T09:57:52;4.40;99.90
21033;DHT22;10675;47.976;7.824;2023-02-05T10:00:26;4.50;99.90
21033;DHT22;10675;47.976;7.824;2023-02-05T10:03:12;4.50;99.90
21033;DHT22;10675;47.976;7.824;2023-02-05T10:11:48;4.60;99.90
21033;DHT22;10675;47.976;7.824;2023-02-05T10:17:47;4.70;99.90
21033;DHT22;10675;47.976;7.824;2023-02-05T10:23:13;4.60;99.90
21033;DHT22;10675;47.976;7.824;2023-02-05T10:26:03;4.60;99.90
21033;DHT22;10675;47.976;7.824;2023-02-05T10:28:52;4.50;99.90
21033;DHT22;10675;47.976;7.824;2023-02-05T10:36:51;4.60;99.90
21033;DHT22;10675;47.976;7.824;2023-02-05T10:39:19;4.60;99.90
21033;DHT22;10675;47.976;7.824;2023-02-05T10:44:37;4.70;99.90
21033;DHT22;10675;47.976;7.824;2023-02-05T10:47:21;4.80;99.90
21033;DHT22;10675;47.976;7.824;2023-02-05T10:50:00;4.80;99.90
21033;DHT22;10675;47.976;7.824;2023-02-05T10:52:27;4.70;99.90
21033;DHT22;10675;47.976;7.824;2023-02-05T10:54:52;4.70;99.90
21033;DHT22;10675;47.976;7.824;2023-02-05T10:57:19;4.60;99.90
21033;DHT22;10675;47.976;7.824;2023-02-05T10:59:57;4.60;99.90
21033;DHT22;10675;47.976;7.824;2023-02-05T11:02:51;4.60;99.90
21033;DHT22;10675;47.976;7.824;2023-02-05T11:07:48;4.50;99.90
21033;DHT22;10675;47.976;7.824;2023-02-05T11:10:18;4.50;99.90
21033;DHT22;10675;47.976;7.824;2023-02-05T11:12:50;4.50;99.90
21033;DHT22;10675;47.976;7.824;2023-02-05T11:15:24;4.50;99.90
21033;DHT22;10675;47.976;7.824;2023-02-05T11:17:53;4.60;99.90
21033;DHT22;10675;47.976;7.824;2023-02-05T11:22:44;4.70;99.90
21033;DHT22;10675;47.976;7.824;2023-02-05T11:25:15;4.70;99.90
21033;DHT22;10675;47.976;7.824;2023-02-05T11:27:52;4.70;99.90
21033;DHT22;10675;47.976;7.824;2023-02-05T11:30:31;4.70;99.90
21033;DHT22;10675;47.976;7.824;2023-02-05T11:33:05;4.90;99.90
21033;DHT22;10675;47.976;7.824;2023-02-05T11:35:40;4.90;99.90
21033;DHT22;10675;47.976;7.824;2023-02-05T11:38:20;5.00;99.90
21033;DHT22;10675;47.976;7.824;2023-02-05T11:40:52;5.20;99.90
21033;DHT22;10675;47.976;7.824;2023-02-05T11:45:56;5.30;99.90
21033;DHT22;10675;47.976;7.824;2023-02-05T11:49:15;5.40;99.90
21033;DHT22;10675;47.976;7.824;2023-02-05T11:51:14;5.40;99.90
21033;DHT22;10675;47.976;7.824;2023-02-05T11:53:59;5.40;99.90
21033;DHT22;10675;47.976;7.824;2023-02-05T11:56:26;5.40;99.90
21033;DHT22;10675;47.976;7.824;2023-02-05T11:59:08;5.50;99.90
21033;DHT22;10675;47.976;7.824;2023-02-05T12:01:41;5.40;99.90
21033;DHT22;10675;47.976;7.824;2023-02-05T12:06:41;5.50;99.90
21033;DHT22;10675;47.976;7.824;2023-02-05T12:09:13;5.50;99.90
21033;DHT22;10675;47.976;7.824;2023-02-05T12:12:01;5.50;99.90
21033;DHT22;10675;47.976;7.824;2023-02-05T12:18:02;5.50;99.90
21033;DHT22;10675;47.976;7.824;2023-02-05T12:20:38;5.40;99.90
21033;DHT22;10675;47.976;7.824;2023-02-05T12:31:44;5.50;99.90
21033;DHT22;10675;47.976;7.824;2023-02-05T12:34:31;5.60;99.90
21033;DHT22;10675;47.976;7.824;2023-02-05T12:42:35;5.70;99.90
21033;DHT22;10675;47.976;7.824;2023-02-05T12:48:18;5.80;99.90
21033;DHT22;10675;47.976;7.824;2023-02-05T12:50:57;5.90;99.90
21033;DHT22;10675;47.976;7.824;2023-02-05T12:56:29;6.00;99.90
21033;DHT22;10675;47.976;7.824;2023-02-05T12:59:00;6.10;99.90
21033;DHT22;10675;47.976;7.824;2023-02-05T13:01:48;6.10;99.90
21033;DHT22;10675;47.976;7.824;2023-02-05T13:06:53;5.90;99.90
21033;DHT22;10675;47.976;7.824;2023-02-05T13:09:29;6.00;99.90
21033;DHT22;10675;47.976;7.824;2023-02-05T13:12:07;6.00;99.90
21033;DHT22;10675;47.976;7.824;2023-02-05T13:14:41;6.10;99.90
21033;DHT22;10675;47.976;7.824;2023-02-05T13:17:18;5.90;99.90
21033;DHT22;10675;47.976;7.824;2023-02-05T13:19:52;5.90;99.90
21033;DHT22;10675;47.976;7.824;2023-02-05T13:22:54;5.80;99.90
21033;DHT22;10675;47.976;7.824;2023-02-05T13:25:41;5.80;99.90
21033;DHT22;10675;47.976;7.824;2023-02-05T13:33:50;5.60;99.90
21033;DHT22;10675;47.976;7.824;2023-02-05T13:53:50;5.50;99.90
21033;DHT22;10675;47.976;7.824;2023-02-05T13:59:43;5.50;99.90
21033;DHT22;10675;47.976;7.824;2023-02-05T14:02:32;5.50;99.90
21033;DHT22;10675;47.976;7.824;2023-02-05T14:05:00;5.50;99.90
21033;DHT22;10675;47.976;7.824;2023-02-05T14:07:32;5.50;99.90
21033;DHT22;10675;47.976;7.824;2023-02-05T14:09:59;5.50;99.90
21033;DHT22;10675;47.976;7.824;2023-02-05T14:12:32;5.50;99.90
21033;DHT22;10675;47.976;7.824;2023-02-05T14:23:02;5.50;99.90
21033;DHT22;10675;47.976;7.824;2023-02-05T14:30:58;5.50;99.90
21033;DHT22;10675;47.976;7.824;2023-02-05T14:41:17;5.50;99.90
21033;DHT22;10675;47.976;7.824;2023-02-05T14:44:04;5.50;99.90
21033;DHT22;10675;47.976;7.824;2023-02-05T14:46:35;5.50;99.90
21033;DHT22;10675;47.976;7.824;2023-02-05T14:49:03;5.50;99.90
21033;DHT22;10675;47.976;7.824;2023-02-05T14:51:38;5.50;99.90
21033;DHT22;10675;47.976;7.824;2023-02-05T14:54:17;5.50;99.90
21033;DHT22;10675;47.976;7.824;2023-02-05T14:56:46;5.50;99.90
21033;DHT22;10675;47.976;7.824;2023-02-05T14:59:21;5.50;99.90
21033;DHT22;10675;47.976;7.824;2023-02-05T15:01:53;5.50;99.90
21033;DHT22;10675;47.976;7.824;2023-02-05T15:04:47;5.50;99.90
21033;DHT22;10675;47.976;7.824;2023-02-05T15:07:20;5.50;99.90
21033;DHT22;10675;47.976;7.824;2023-02-05T15:09:52;5.40;99.90
21033;DHT22;10675;47.976;7.824;2023-02-05T15:12:32;5.50;99.90
21033;DHT22;10675;47.976;7.824;2023-02-05T15:17:56;5.30;99.90
21033;DHT22;10675;47.976;7.824;2023-02-05T15:20:29;5.30;99.90
21033;DHT22;10675;47.976;7.824;2023-02-05T15:23:29;5.30;99.90
21033;DHT22;10675;47.976;7.824;2023-02-05T15:26:26;5.30;99.90
21033;DHT22;10675;47.976;7.824;2023-02-05T15:31:44;5.20;99.90
21033;DHT22;10675;47.976;7.824;2023-02-05T15:34:36;5.20;99.90
21033;DHT22;10675;47.976;7.824;2023-02-05T15:42:20;5.10;99.90
21033;DHT22;10675;47.976;7.824;2023-02-05T15:44:46;5.10;99.90
21033;DHT22;10675;47.976;7.824;2023-02-05T15:49:43;5.10;99.90
21033;DHT22;10675;47.976;7.824;2023-02-05T15:52:22;5.10;99.90
21033;DHT22;10675;47.976;7.824;2023-02-05T15:54:49;5.10;99.90
21033;DHT22;10675;47.976;7.824;2023-02-05T15:57:22;5.00;99.90
21033;DHT22;10675;47.976;7.824;2023-02-05T15:59:49;5.10;99.90
21033;DHT22;10675;47.976;7.824;2023-02-05T16:02:21;5.00;99.90
21033;DHT22;10675;47.976;7.824;2023-02-05T16:07:27;4.90;99.90
21033;DHT22;10675;47.976;7.824;2023-02-05T16:09:58;4.90;99.90
21033;DHT22;10675;47.976;7.824;2023-02-05T16:12:25;4.90;99.90
21033;DHT22;10675;47.976;7.824;2023-02-05T16:15:01;4.90;99.90
21033;DHT22;10675;47.976;7.824;2023-02-05T16:17:41;4.90;99.90
21033;DHT22;10675;47.976;7.824;2023-02-05T16:20:36;4.90;99.90
21033;DHT22;10675;47.976;7.824;2023-02-05T16:23:18;4.90;99.90
21033;DHT22;10675;47.976;7.824;2023-02-05T16:28:49;7.40;99.90
21033;DHT22;10675;47.976;7.824;2023-02-05T16:31:18;6.20;99.90
21033;DHT22;10675;47.976;7.824;2023-02-05T16:34:14;5.70;99.90
21033;DHT22;10675;47.976;7.824;2023-02-05T16:36:44;5.30;99.90
21033;DHT22;10675;47.976;7.824;2023-02-05T16:39:24;5.10;99.90
21033;DHT22;10675;47.976;7.824;2023-02-05T16:44:38;4.90;99.90
21033;DHT22;10675;47.976;7.824;2023-02-05T16:47:11;4.90;99.90
21033;DHT22;10675;47.976;7.824;2023-02-05T16:49:37;5.10;99.90
21033;DHT22;10675;47.976;7.824;2023-02-05T16:52:12;5.20;99.90
21033;DHT22;10675;47.976;7.824;2023-02-05T16:54:47;5.20;99.90
21033;DHT22;10675;47.976;7.824;2023-02-05T16:57:14;5.20;99.90
21033;DHT22;10675;47.976;7.824;2023-02-05T17:04:58;5.00;99.90
21033;DHT22;10675;47.976;7.824;2023-02-05T17:07:26;4.90;99.90
21033;DHT22;10675;47.976;7.824;2023-02-05T17:09:51;4.80;99.90
21033;DHT22;10675;47.976;7.824;2023-02-05T17:12:36;4.80;99.90
21033;DHT22;10675;47.976;7.824;2023-02-05T17:17:48;4.70;99.90
21033;DHT22;10675;47.976;7.824;2023-02-05T17:25:38;4.80;99.90
21033;DHT22;10675;47.976;7.824;2023-02-05T17:28:08;4.80;99.90
21033;DHT22;10675;47.976;7.824;2023-02-05T17:30:35;4.90;99.90
21033;DHT22;10675;47.976;7.824;2023-02-05T17:33:05;4.80;99.90
21033;DHT22;10675;47.976;7.824;2023-02-05T17:35:31;4.80;99.90
21033;DHT22;10675;47.976;7.824;2023-02-05T17:37:58;4.70;99.90
21033;DHT22;10675;47.976;7.824;2023-02-05T17:40:23;4.80;99.90
21033;DHT22;10675;47.976;7.824;2023-02-05T17:42:49;4.80;99.90
21033;DHT22;10675;47.976;7.824;2023-02-05T17:45:23;4.90;99.90
21033;DHT22;10675;47.976;7.824;2023-02-05T17:47:49;4.80;99.90
21033;DHT22;10675;47.976;7.824;2023-02-05T17:50:15;4.80;99.90
21033;DHT22;10675;47.976;7.824;2023-02-05T17:52:42;4.80;99.90
21033;DHT22;10675;47.976;7.824;2023-02-05T17:55:15;4.80;99.90
21033;DHT22;10675;47.976;7.824;2023-02-05T17:57:41;4.80;99.90
21033;DHT22;10675;47.976;7.824;2023-02-05T18:00:13;4.90;99.90
21033;DHT22;10675;47.976;7.824;2023-02-05T18:02:39;4.90;99.90
21033;DHT22;10675;47.976;7.824;2023-02-05T18:05:05;4.90;99.90
21033;DHT22;10675;47.976;7.824;2023-02-05T18:07:31;4.90;99.90
21033;DHT22;10675;47.976;7.824;2023-02-05T18:09:58;4.80;99.90
21033;DHT22;10675;47.976;7.824;2023-02-05T18:12:24;4.80;99.90
21033;DHT22;10675;47.976;7.824;2023-02-05T18:14:50;4.80;99.90
21033;DHT22;10675;47.976;7.824;2023-02-05T18:17:15;4.90;99.90
21033;DHT22;10675;47.976;7.824;2023-02-05T18:19:41;5.00;99.90
21033;DHT22;10675;47.976;7.824;2023-02-05T18:22:06;5.00;99.90
21033;DHT22;10675;47.976;7.824;2023-02-05T18:24:32;4.90;99.90
21033;DHT22;10675;47.976;7.824;2023-02-05T18:27:01;4.80;99.90
21033;DHT22;10675;47.976;7.824;2023-02-05T18:29:28;4.80;99.90
21033;DHT22;10675;47.976;7.824;2023-02-05T18:31:54;4.70;99.90
21033;DHT22;10675;47.976;7.824;2023-02-05T18:34:20;4.80;99.90
21033;DHT22;10675;47.976;7.824;2023-02-05T18:36:45;4.70;99.90
21033;DHT22;10675;47.976;7.824;2023-02-05T18:39:11;4.70;99.90
21033;DHT22;10675;47.976;7.824;2023-02-05T18:41:36;4.80;99.90